Fairport, Missouri
Current Conditions -  °F | °C
As of 7:53 AM on Monday 26 Jan 2015 (Local Time) from KSTJ Reporting Station
Haze Haze  
Wind Chill: -8°   Ceiling: Unl
Heat Index: -4°   Visibility: 6mi
Dew Point: -5°   Wind: 7mph
Humidity: 92%   Direction: 180°S
Pressure: 29.97"   Gusts: NA
Location:  39.99°N, 94.35°W
Report Text: KSTJ 261353Z 18006KT 6SM BR CLR M04/M05 A2997 RMK AO2 SLP159 T10391050
Loading
Personal Weather Stations






























Interactive Weather Map New forecast layout! Learn more

10-Day Weather Forecast

Advertisements
Track Severe Weather on mobile